createdAt,value
2019-05-18T00:01:54.649Z,7.40
2019-05-18T00:04:27.418Z,7.40
2019-05-18T00:06:59.982Z,7.30
2019-05-18T00:09:31.886Z,7.30
2019-05-18T00:12:04.205Z,7.30
2019-05-18T00:14:43.944Z,7.20
2019-05-18T00:17:24.890Z,7.20
2019-05-18T00:19:50.168Z,7.20
2019-05-18T00:22:22.246Z,7.20
2019-05-18T00:24:54.596Z,7.30
2019-05-18T00:27:26.615Z,7.30
2019-05-18T00:29:58.695Z,7.30
2019-05-18T00:32:31.640Z,7.30
2019-05-18T00:35:04.403Z,7.40
2019-05-18T00:37:37.701Z,7.40
2019-05-18T00:40:11.627Z,7.50
2019-05-18T00:42:43.911Z,7.50
2019-05-18T00:45:16.396Z,7.50
2019-05-18T00:47:48.558Z,7.50
2019-05-18T00:50:23.151Z,7.50
2019-05-18T00:52:54.851Z,7.60
2019-05-18T00:55:27.731Z,7.60
2019-05-18T00:57:59.772Z,7.60
2019-05-18T01:00:31.827Z,7.70
2019-05-18T01:03:03.681Z,7.70
2019-05-18T01:05:38.028Z,7.80
2019-05-18T01:08:08.905Z,7.80
2019-05-18T01:10:40.580Z,7.90
2019-05-18T01:13:12.359Z,7.90
2019-05-18T01:15:45.634Z,7.90
2019-05-18T01:18:17.106Z,8.00
2019-05-18T01:20:51.255Z,8.00
2019-05-18T01:23:24.132Z,8.10
2019-05-18T01:25:56.195Z,8.10
2019-05-18T01:28:31.194Z,8.10
2019-05-18T01:31:03.755Z,8.10
2019-05-18T01:33:36.176Z,8.20
2019-05-18T01:36:08.955Z,8.20
2019-05-18T01:38:41.150Z,8.20
2019-05-18T01:41:13.295Z,8.10
2019-05-18T01:43:44.998Z,8.20
2019-05-18T01:46:18.772Z,8.10
2019-05-18T01:48:52.326Z,8.10
2019-05-18T01:51:25.258Z,8.10
2019-05-18T01:53:58.858Z,8.00
2019-05-18T01:56:32.268Z,8.10
2019-05-18T01:59:05.045Z,8.10
2019-05-18T02:01:37.400Z,8.10
2019-05-18T02:04:09.812Z,8.10
2019-05-18T02:06:41.909Z,8.10
2019-05-18T02:09:14.318Z,8.10
2019-05-18T02:11:46.471Z,8.20
2019-05-18T02:14:20.026Z,8.20
2019-05-18T02:16:52.471Z,8.10
2019-05-18T02:19:25.691Z,8.10
2019-05-18T02:21:57.361Z,8.10
2019-05-18T02:24:29.464Z,8.20
2019-05-18T02:27:00.757Z,8.20
2019-05-18T02:29:34.463Z,8.20
2019-05-18T02:32:07.780Z,8.20
2019-05-18T02:34:40.160Z,8.30
2019-05-18T02:37:13.405Z,8.30
2019-05-18T02:39:45.267Z,8.30
2019-05-18T02:42:17.523Z,8.40
2019-05-18T02:44:49.993Z,8.40
2019-05-18T02:47:22.071Z,8.40
2019-05-18T02:49:54.080Z,8.40
2019-05-18T02:52:26.442Z,8.40
2019-05-18T02:55:00.006Z,8.40
2019-05-18T02:57:32.145Z,8.40
2019-05-18T03:00:04.437Z,8.40
2019-05-18T03:02:36.292Z,8.50
2019-05-18T03:05:10.392Z,8.50
2019-05-18T03:07:44.022Z,8.50
2019-05-18T03:10:16.689Z,8.50
2019-05-18T03:12:49.095Z,8.50
2019-05-18T03:15:21.611Z,8.60
2019-05-18T03:17:53.808Z,8.50
2019-05-18T03:20:26.046Z,8.50
2019-05-18T03:22:58.467Z,8.60
2019-05-18T03:25:31.394Z,8.60
2019-05-18T03:28:04.030Z,8.60
2019-05-18T03:30:36.125Z,8.60
2019-05-18T03:33:08.313Z,8.60
2019-05-18T03:35:40.455Z,8.60
2019-05-18T03:38:15.363Z,8.60
2019-05-18T03:40:47.780Z,8.70
2019-05-18T03:43:20.502Z,8.70
2019-05-18T03:45:52.851Z,8.70
2019-05-18T03:48:25.222Z,8.70
2019-05-18T03:50:57.537Z,8.70
2019-05-18T03:53:29.640Z,8.70
2019-05-18T03:56:04.593Z,8.70
2019-05-18T03:58:36.554Z,8.70
2019-05-18T04:01:08.801Z,8.70
2019-05-18T04:03:40.829Z,8.80
2019-05-18T04:06:12.818Z,8.80
2019-05-18T04:08:45.737Z,8.80
2019-05-18T04:11:17.605Z,8.80
2019-05-18T04:13:49.379Z,8.80
2019-05-18T04:16:23.701Z,8.80
2019-05-18T04:18:55.801Z,8.80
2019-05-18T04:21:27.698Z,8.80
2019-05-18T04:23:59.983Z,8.80
2019-05-18T04:26:32.579Z,8.90
2019-05-18T04:29:05.063Z,8.90
2019-05-18T04:31:36.958Z,8.90
2019-05-18T04:34:09.258Z,9.00
2019-05-18T04:36:42.245Z,9.00
2019-05-18T04:39:14.275Z,9.10
2019-05-18T04:41:46.912Z,9.10
2019-05-18T04:44:18.717Z,9.20
2019-05-18T04:46:50.676Z,9.20
2019-05-18T04:49:25.676Z,9.30
2019-05-18T04:51:57.714Z,9.30
2019-05-18T04:54:31.577Z,9.40
2019-05-18T04:57:04.165Z,9.40
2019-05-18T04:59:37.205Z,9.50
2019-05-18T05:02:11.067Z,9.60
2019-05-18T05:04:44.357Z,9.60
2019-05-18T05:07:18.012Z,9.70
2019-05-18T05:09:50.235Z,9.70
2019-05-18T05:12:27.479Z,9.80
2019-05-18T05:15:00.700Z,9.90
2019-05-18T05:17:33.735Z,9.90
2019-05-18T05:20:18.599Z,10.00
2019-05-18T05:22:41.707Z,10.10
2019-05-18T05:28:25.916Z,10.20
2019-05-18T05:30:57.690Z,10.30
2019-05-18T05:33:29.744Z,10.50
2019-05-18T05:36:01.571Z,10.60
2019-05-18T05:38:34.892Z,10.70
2019-05-18T05:41:07.205Z,10.80
2019-05-18T05:43:40.064Z,11.00
2019-05-18T05:46:12.457Z,11.20
2019-05-18T05:48:45.839Z,11.50
2019-05-18T05:51:18.887Z,11.90
2019-05-18T05:53:50.560Z,12.10
2019-05-18T05:56:22.300Z,12.40
2019-05-18T05:58:55.096Z,12.60
2019-05-18T06:01:27.290Z,12.90
2019-05-18T06:04:00.314Z,13.10
2019-05-18T06:06:32.963Z,13.40
2019-05-18T06:09:06.743Z,13.60
2019-05-18T06:11:38.890Z,13.80
2019-05-18T06:14:10.878Z,13.80
2019-05-18T06:16:44.056Z,13.90
2019-05-18T06:19:16.516Z,14.00
2019-05-18T06:21:48.682Z,14.20
2019-05-18T06:24:20.878Z,14.40
2019-05-18T06:26:52.778Z,14.40
2019-05-18T06:29:25.292Z,14.60
2019-05-18T06:31:57.260Z,14.60
2019-05-18T06:34:28.878Z,14.40
2019-05-18T06:37:01.470Z,14.50
2019-05-18T06:39:34.505Z,14.60
2019-05-18T06:42:07.314Z,14.70
2019-05-18T06:44:39.302Z,14.80
2019-05-18T06:47:11.699Z,14.90
2019-05-18T06:49:43.835Z,15.00
2019-05-18T06:52:16.921Z,14.90
2019-05-18T06:54:49.130Z,15.20
2019-05-18T06:57:23.481Z,15.40
2019-05-18T06:59:55.879Z,15.40
2019-05-18T07:02:27.924Z,15.40
2019-05-18T07:05:02.440Z,15.50
2019-05-18T07:07:35.607Z,15.50
2019-05-18T07:10:08.276Z,15.50
2019-05-18T07:12:40.475Z,15.80
2019-05-18T07:15:13.571Z,15.80
2019-05-18T07:17:46.157Z,15.90
2019-05-18T07:20:19.367Z,15.80
2019-05-18T07:22:52.219Z,15.80
2019-05-18T07:25:24.855Z,16.10
2019-05-18T07:27:57.003Z,16.20
2019-05-18T07:30:29.743Z,16.20
2019-05-18T07:33:01.350Z,16.10
2019-05-18T07:35:36.416Z,16.20
2019-05-18T07:38:08.445Z,16.30
2019-05-18T07:40:41.369Z,16.40
2019-05-18T07:43:13.497Z,16.40
2019-05-18T07:45:45.358Z,16.40
2019-05-18T07:48:17.810Z,16.50
2019-05-18T07:50:49.693Z,16.70
2019-05-18T07:53:22.594Z,16.60
2019-05-18T07:55:55.332Z,16.50
2019-05-18T07:58:29.112Z,16.50
2019-05-18T08:01:01.213Z,16.40
2019-05-18T08:03:33.720Z,16.30
2019-05-18T08:06:06.091Z,16.40
2019-05-18T08:08:38.649Z,16.50
2019-05-18T08:11:10.462Z,16.70
2019-05-18T08:13:45.755Z,16.70
2019-05-18T08:16:19.457Z,16.60
2019-05-18T08:18:52.116Z,16.50
2019-05-18T08:21:24.496Z,16.30
2019-05-18T08:23:56.989Z,16.30
2019-05-18T08:26:29.033Z,16.50
2019-05-18T08:29:01.300Z,17.20
2019-05-18T08:31:33.065Z,17.50
2019-05-18T08:34:06.505Z,17.70
2019-05-18T08:36:39.315Z,18.00
2019-05-18T08:39:11.986Z,18.50
2019-05-18T08:41:44.527Z,18.50
2019-05-18T08:44:17.102Z,18.10
2019-05-18T08:46:49.140Z,17.90
2019-05-18T08:49:21.378Z,18.00
2019-05-18T08:52:06.191Z,18.10
2019-05-18T08:54:28.019Z,18.10
2019-05-18T08:57:00.679Z,17.50
2019-05-18T08:59:33.210Z,17.60
2019-05-18T09:02:06.012Z,17.50
2019-05-18T09:04:37.921Z,17.80
2019-05-18T09:07:09.872Z,17.80
2019-05-18T09:09:42.283Z,17.70
2019-05-18T09:12:14.208Z,17.70
2019-05-18T09:14:46.445Z,17.70
2019-05-18T09:17:18.770Z,17.70
2019-05-18T09:19:51.081Z,17.90
2019-05-18T09:22:23.552Z,18.10
2019-05-18T09:28:06.745Z,18.30
2019-05-18T09:30:41.176Z,18.30
2019-05-18T09:33:12.217Z,18.00
2019-05-18T09:35:44.398Z,17.90
2019-05-18T09:38:16.572Z,17.80
2019-05-18T09:40:50.334Z,17.60
2019-05-18T09:43:22.225Z,17.60
2019-05-18T09:45:54.799Z,17.60
2019-05-18T09:48:26.686Z,17.70
2019-05-18T09:50:58.545Z,17.60
2019-05-18T09:53:30.644Z,17.60
2019-05-18T09:56:03.300Z,17.50
2019-05-18T09:58:35.537Z,17.80
2019-05-18T10:01:07.230Z,18.00
2019-05-18T10:03:38.973Z,18.30
2019-05-18T10:06:10.976Z,18.60
2019-05-18T10:08:43.179Z,18.60
2019-05-18T10:14:26.176Z,18.70
2019-05-18T10:16:58.268Z,19.00
2019-05-18T10:19:30.280Z,19.60
2019-05-18T10:22:03.036Z,19.90
2019-05-18T10:24:35.187Z,19.80
2019-05-18T10:27:07.235Z,19.60
2019-05-18T10:29:39.035Z,19.60
2019-05-18T10:32:10.983Z,19.60
2019-05-18T10:34:42.831Z,19.60
2019-05-18T10:37:14.650Z,19.60
2019-05-18T10:39:46.571Z,19.90
2019-05-18T10:42:18.762Z,20.20
2019-05-18T10:44:51.075Z,20.00
2019-05-18T10:47:22.803Z,19.80
2019-05-18T10:49:54.592Z,20.60
2019-05-18T10:52:26.321Z,20.70
2019-05-18T10:54:58.261Z,20.30
2019-05-18T10:57:30.181Z,20.30
2019-05-18T11:00:02.137Z,19.90
2019-05-18T11:02:35.467Z,20.20
2019-05-18T11:05:08.325Z,20.40
2019-05-18T11:07:40.255Z,21.00
2019-05-18T11:10:12.951Z,21.60
2019-05-18T11:15:56.035Z,21.40
2019-05-18T11:18:30.344Z,21.40
2019-05-18T11:21:01.320Z,21.10
2019-05-18T11:23:43.415Z,21.50
2019-05-18T11:26:07.456Z,21.40
2019-05-18T11:28:39.572Z,21.20
2019-05-18T11:31:11.096Z,21.10
2019-05-18T11:33:43.262Z,21.10
2019-05-18T11:36:15.470Z,21.30
2019-05-18T11:38:47.100Z,20.80
2019-05-18T11:41:19.027Z,20.90
2019-05-18T11:43:50.854Z,21.40
2019-05-18T11:46:22.860Z,21.60
2019-05-18T11:48:54.851Z,21.40
2019-05-18T11:51:29.149Z,21.20
2019-05-18T11:54:01.068Z,21.70
2019-05-18T11:56:35.542Z,21.90
2019-05-18T11:59:08.200Z,22.00
2019-05-18T12:01:39.660Z,22.30
2019-05-18T12:04:11.450Z,22.60
2019-05-18T12:06:43.461Z,22.80
2019-05-18T12:09:15.539Z,22.40
2019-05-18T12:11:48.126Z,22.70
2019-05-18T12:14:20.325Z,23.20
2019-05-18T12:16:52.792Z,23.70
2019-05-18T12:19:24.744Z,22.80
2019-05-18T12:21:57.029Z,21.70
2019-05-18T12:24:30.406Z,21.50
2019-05-18T12:27:03.218Z,21.30
2019-05-18T12:29:35.531Z,21.60
2019-05-18T12:32:07.935Z,21.40
2019-05-18T12:34:39.781Z,21.30
2019-05-18T12:37:13.396Z,21.20
2019-05-18T12:39:45.966Z,20.70
2019-05-18T12:42:19.676Z,20.90
2019-05-18T12:44:54.129Z,20.80
2019-05-18T12:47:26.343Z,20.60
2019-05-18T12:49:59.469Z,20.80
2019-05-18T12:52:31.672Z,20.80
2019-05-18T12:55:04.493Z,20.50
2019-05-18T12:57:38.546Z,20.50
2019-05-18T13:00:13.678Z,20.20
2019-05-18T13:02:46.011Z,20.40
2019-05-18T13:05:18.601Z,20.80
2019-05-18T13:07:51.417Z,20.90
2019-05-18T13:10:24.810Z,21.30
2019-05-18T13:12:57.835Z,21.10
2019-05-18T13:15:29.787Z,20.80
2019-05-18T13:18:02.071Z,20.80
2019-05-18T13:20:34.207Z,21.00
2019-05-18T13:23:06.638Z,21.30
2019-05-18T13:25:38.962Z,20.30
2019-05-18T13:28:11.225Z,20.60
2019-05-18T13:30:43.502Z,21.00
2019-05-18T13:33:16.255Z,20.90
2019-05-18T13:35:48.166Z,20.90
2019-05-18T13:38:21.686Z,21.50
2019-05-18T13:40:55.062Z,21.60
2019-05-18T13:43:27.086Z,21.30
2019-05-18T13:45:59.116Z,20.80
2019-05-18T13:48:31.597Z,21.00
2019-05-18T13:51:03.982Z,21.10
2019-05-18T13:53:36.228Z,21.00
2019-05-18T13:56:08.325Z,21.40
2019-05-18T13:58:40.793Z,21.10
2019-05-18T14:01:14.226Z,21.00
2019-05-18T14:03:50.517Z,20.90
2019-05-18T14:06:22.852Z,20.70
2019-05-18T14:08:54.821Z,21.20
2019-05-18T14:14:38.805Z,21.20
2019-05-18T14:17:10.695Z,21.20
2019-05-18T14:19:43.158Z,20.90
2019-05-18T14:22:15.136Z,20.80
2019-05-18T14:24:47.423Z,20.70
2019-05-18T14:27:19.187Z,20.50
2019-05-18T14:29:52.171Z,20.50
2019-05-18T14:35:36.199Z,20.50
2019-05-18T14:41:19.714Z,20.70
2019-05-18T14:43:51.973Z,20.90
2019-05-18T14:46:24.257Z,21.30
2019-05-18T14:48:56.445Z,21.20
2019-05-18T14:51:29.517Z,21.00
2019-05-18T14:54:01.933Z,20.90
2019-05-18T14:56:34.562Z,21.10
2019-05-18T14:59:06.887Z,20.70
2019-05-18T15:01:39.277Z,21.10
2019-05-18T15:04:11.451Z,21.10
2019-05-18T15:06:43.204Z,21.00
2019-05-18T15:09:15.918Z,21.00
2019-05-18T15:11:49.259Z,20.60
2019-05-18T15:14:23.506Z,20.80
2019-05-18T15:16:57.484Z,20.80
2019-05-18T15:19:30.413Z,20.80
2019-05-18T15:22:03.072Z,20.90
2019-05-18T15:24:34.972Z,21.00
2019-05-18T15:27:08.147Z,21.10
2019-05-18T15:29:40.621Z,20.90
2019-05-18T15:32:13.645Z,20.60
2019-05-18T15:34:46.795Z,20.30
2019-05-18T15:37:21.090Z,20.30
2019-05-18T15:39:55.782Z,20.00
2019-05-18T15:42:27.985Z,19.90
2019-05-18T15:45:07.659Z,19.90
2019-05-18T15:47:43.715Z,19.70
2019-05-18T15:50:16.818Z,19.80
2019-05-18T15:53:08.682Z,20.00
2019-05-18T15:55:40.550Z,19.80
2019-05-18T15:58:15.404Z,19.60
2019-05-18T16:00:47.924Z,19.40
2019-05-18T16:03:23.004Z,19.60
2019-05-18T16:05:54.926Z,20.00
2019-05-18T16:08:30.067Z,19.70
2019-05-18T16:11:02.576Z,19.90
2019-05-18T16:13:34.357Z,20.00
2019-05-18T16:16:11.400Z,19.70
2019-05-18T16:18:58.262Z,19.80
2019-05-18T16:21:34.718Z,19.50
2019-05-18T16:24:10.760Z,19.20
2019-05-18T16:26:44.203Z,19.20
2019-05-18T16:29:17.780Z,18.90
2019-05-18T16:31:50.638Z,18.90
2019-05-18T16:34:22.585Z,18.90
2019-05-18T16:36:56.236Z,19.20
2019-05-18T16:39:29.160Z,19.10
2019-05-18T16:42:01.362Z,19.00
2019-05-18T16:44:33.345Z,18.70
2019-05-18T16:47:09.168Z,18.50
2019-05-18T16:49:42.872Z,18.30
2019-05-18T16:52:17.158Z,18.40
2019-05-18T16:54:48.949Z,18.40
2019-05-18T16:57:20.870Z,18.30
2019-05-18T16:59:52.531Z,18.60
2019-05-18T17:02:31.587Z,18.70
2019-05-18T17:04:58.777Z,18.50
2019-05-18T17:07:30.543Z,18.20
2019-05-18T17:10:02.270Z,18.30
2019-05-18T17:12:33.937Z,18.10
2019-05-18T17:15:06.938Z,18.00
2019-05-18T17:17:38.635Z,17.80
2019-05-18T17:20:10.911Z,17.70
2019-05-18T17:22:42.811Z,17.60
2019-05-18T17:25:15.631Z,17.50
2019-05-18T17:27:50.570Z,17.30
2019-05-18T17:30:22.670Z,17.30
2019-05-18T17:32:54.181Z,17.40
2019-05-18T17:35:25.888Z,17.30
2019-05-18T17:37:58.558Z,17.20
2019-05-18T17:40:30.271Z,17.20
2019-05-18T17:43:02.152Z,17.10
2019-05-18T17:45:34.229Z,17.20
2019-05-18T17:48:06.356Z,17.10
2019-05-18T17:50:38.249Z,17.00
2019-05-18T17:53:09.994Z,17.00
2019-05-18T17:55:41.714Z,17.00
2019-05-18T17:58:13.412Z,16.80
2019-05-18T18:00:45.480Z,16.70
2019-05-18T18:03:17.156Z,16.70
2019-05-18T18:05:49.084Z,16.70
2019-05-18T18:08:21.745Z,16.60
2019-05-18T18:14:05.286Z,16.60
2019-05-18T18:16:38.392Z,16.50
2019-05-18T18:19:10.168Z,16.50
2019-05-18T18:21:41.705Z,16.50
2019-05-18T18:24:15.422Z,16.50
2019-05-18T18:26:48.783Z,16.40
2019-05-18T18:29:21.296Z,16.30
2019-05-18T18:31:53.850Z,16.30
2019-05-18T18:34:26.866Z,16.20
2019-05-18T18:36:59.082Z,16.20
2019-05-18T18:39:34.471Z,16.20
2019-05-18T18:42:07.406Z,16.20
2019-05-18T18:44:40.557Z,16.00
2019-05-18T18:47:13.782Z,16.00
2019-05-18T18:49:46.658Z,15.80
2019-05-18T18:52:19.270Z,15.80
2019-05-18T18:54:54.863Z,15.80
2019-05-18T18:57:40.081Z,15.80
2019-05-18T19:00:00.525Z,15.60
2019-05-18T19:02:33.217Z,15.50
2019-05-18T19:05:09.446Z,15.40
2019-05-18T19:07:42.713Z,15.30
2019-05-18T19:10:14.876Z,15.20
2019-05-18T19:12:48.384Z,15.20
2019-05-18T19:15:21.096Z,15.20
2019-05-18T19:17:54.207Z,15.10
2019-05-18T19:20:28.124Z,14.90
2019-05-18T19:23:00.314Z,14.80
2019-05-18T19:25:32.594Z,14.70
2019-05-18T19:28:04.714Z,14.70
2019-05-18T19:30:36.588Z,14.70
2019-05-18T19:33:09.782Z,14.60
2019-05-18T19:35:43.828Z,14.60
2019-05-18T19:38:15.808Z,14.50
2019-05-18T19:40:48.537Z,14.40
2019-05-18T19:43:21.298Z,14.40
2019-05-18T19:45:53.742Z,14.40
2019-05-18T19:48:27.205Z,14.40
2019-05-18T19:51:02.087Z,14.30
2019-05-18T19:53:34.008Z,14.30
2019-05-18T19:59:17.791Z,14.20
2019-05-18T20:01:52.458Z,14.20
2019-05-18T20:04:25.262Z,14.10
2019-05-18T20:07:01.845Z,14.20
2019-05-18T20:09:37.378Z,14.10
2019-05-18T20:12:09.811Z,14.10
2019-05-18T20:14:41.939Z,14.10
2019-05-18T20:17:14.750Z,14.00
2019-05-18T20:19:48.911Z,14.00
2019-05-18T20:22:20.686Z,14.00
2019-05-18T20:24:54.593Z,14.00
2019-05-18T20:27:26.760Z,14.00
2019-05-18T20:29:59.121Z,13.90
2019-05-18T20:32:31.490Z,13.90
2019-05-18T20:35:03.454Z,13.90
2019-05-18T20:37:36.380Z,13.90
2019-05-18T20:40:10.049Z,13.90
2019-05-18T20:43:20.572Z,13.90
2019-05-18T20:45:58.603Z,13.90
2019-05-18T20:48:31.424Z,13.90
2019-05-18T20:51:07.098Z,13.80
2019-05-18T20:53:41.119Z,13.80
2019-05-18T20:56:14.321Z,13.80
2019-05-18T20:58:46.488Z,13.70
2019-05-18T21:01:18.219Z,13.70
2019-05-18T21:03:53.641Z,13.70
2019-05-18T21:06:26.437Z,13.70
2019-05-18T21:08:59.372Z,13.60
2019-05-18T21:11:33.659Z,13.60
2019-05-18T21:14:08.265Z,13.60
2019-05-18T21:16:40.602Z,13.50
2019-05-18T21:19:13.485Z,13.50
2019-05-18T21:21:46.269Z,13.50
2019-05-18T21:24:22.062Z,13.50
2019-05-18T21:26:54.014Z,13.50
2019-05-18T21:29:26.260Z,13.50
2019-05-18T21:31:58.743Z,13.50
2019-05-18T21:34:31.082Z,13.40
2019-05-18T21:37:02.739Z,13.40
2019-05-18T21:39:37.640Z,13.40
2019-05-18T21:42:13.808Z,13.30
2019-05-18T21:44:46.886Z,13.30
2019-05-18T21:47:19.849Z,13.20
2019-05-18T21:49:51.867Z,13.20
2019-05-18T21:52:24.828Z,13.20
2019-05-18T21:54:56.845Z,13.20
2019-05-18T21:57:29.950Z,13.10
2019-05-18T22:00:03.793Z,13.20
2019-05-18T22:02:38.234Z,13.10
2019-05-18T22:05:12.211Z,13.20
2019-05-18T22:07:44.417Z,13.10
2019-05-18T22:10:25.519Z,13.10
2019-05-18T22:12:50.610Z,13.10
2019-05-18T22:15:23.672Z,13.10
2019-05-18T22:18:05.537Z,13.00
2019-05-18T22:20:43.315Z,13.00
2019-05-18T22:23:12.389Z,13.00
2019-05-18T22:25:46.027Z,12.90
2019-05-18T22:28:17.860Z,12.90
2019-05-18T22:30:53.715Z,12.90
2019-05-18T22:33:27.023Z,12.90
2019-05-18T22:35:59.819Z,12.90
2019-05-18T22:38:32.230Z,12.90
2019-05-18T22:41:06.008Z,12.90
2019-05-18T22:43:39.697Z,12.90
2019-05-18T22:46:11.619Z,12.90
2019-05-18T22:48:43.691Z,13.00
2019-05-18T22:51:16.918Z,12.90
2019-05-18T22:53:49.034Z,12.90
2019-05-18T22:56:22.119Z,12.90
2019-05-18T22:58:54.765Z,12.90
2019-05-18T23:01:28.136Z,12.90
2019-05-18T23:04:00.367Z,12.80
2019-05-18T23:06:32.068Z,12.80
2019-05-18T23:09:07.900Z,12.80
2019-05-18T23:11:40.713Z,12.80
2019-05-18T23:14:13.673Z,12.80
2019-05-18T23:16:47.212Z,12.70
2019-05-18T23:19:19.260Z,12.70
2019-05-18T23:21:53.544Z,12.70
2019-05-18T23:24:25.461Z,12.60
2019-05-18T23:26:58.530Z,12.60
2019-05-18T23:29:30.718Z,12.60
2019-05-18T23:32:03.775Z,12.60
2019-05-18T23:34:36.014Z,12.50
2019-05-18T23:37:09.734Z,12.50
2019-05-18T23:39:44.405Z,12.60
2019-05-18T23:42:16.518Z,12.50
2019-05-18T23:44:49.153Z,12.50
2019-05-18T23:47:22.574Z,12.50
2019-05-18T23:49:55.800Z,12.60
2019-05-18T23:52:28.945Z,12.60
2019-05-18T23:55:01.796Z,12.60
2019-05-18T23:57:34.716Z,12.60
